createdAt,value
2022-09-17T00:03:11.411Z,97637.94
2022-09-17T00:08:15.108Z,97633.59
2022-09-17T00:13:17.723Z,97637.63
2022-09-17T00:18:20.304Z,97645.78
2022-09-17T00:23:22.781Z,97636.09
2022-09-17T00:28:25.441Z,97650.56
2022-09-17T00:33:27.864Z,97645.44
2022-09-17T00:38:30.665Z,97645.22
2022-09-17T00:43:49.148Z,97648.38
2022-09-17T00:48:54.620Z,97644.78
2022-09-17T00:53:57.547Z,97647.63
2022-09-17T00:59:02.873Z,97646.31
2022-09-17T01:04:05.331Z,97654.59
2022-09-17T01:09:45.411Z,97650.88
2022-09-17T01:15:19.428Z,97655.91
2022-09-17T01:20:59.479Z,97655.13
2022-09-17T01:26:10.602Z,97664.69
2022-09-17T01:31:45.349Z,97670.56
2022-09-17T01:37:14.930Z,97671.25
2022-09-17T01:42:33.517Z,97680.78
2022-09-17T01:47:58.399Z,97683.84
2022-09-17T01:53:03.020Z,97681.31
2022-09-17T01:58:12.744Z,97671.44
2022-09-17T02:03:23.781Z,97685.50
2022-09-17T02:08:37.088Z,97682.03
2022-09-17T02:13:48.347Z,97680.94
2022-09-17T02:18:59.623Z,97683.75
2022-09-17T02:24:28.132Z,97675.47
2022-09-17T02:29:35.258Z,97670.16
2022-09-17T02:34:38.608Z,97677.97
2022-09-17T02:39:42.039Z,97666.31
2022-09-17T02:45:19.282Z,97671.66
2022-09-17T02:50:28.001Z,97663.31
2022-09-17T02:55:52.729Z,97656.88
2022-09-17T03:01:01.368Z,97659.13
2022-09-17T03:06:04.697Z,97657.91
2022-09-17T03:11:09.215Z,97662.75
2022-09-17T03:16:11.759Z,97660.75
2022-09-17T03:21:14.361Z,97656.28
2022-09-17T03:26:16.850Z,97654.66
2022-09-17T03:31:19.501Z,97663.84
2022-09-17T03:36:22.112Z,97669.28
2022-09-17T03:41:25.227Z,97677.13
2022-09-17T03:46:27.735Z,97678.13
2022-09-17T03:51:30.298Z,97688.00
2022-09-17T03:56:32.711Z,97682.41
2022-09-17T04:01:36.208Z,97690.88
2022-09-17T04:06:38.802Z,97692.41
2022-09-17T04:11:41.272Z,97697.00
2022-09-17T04:16:43.739Z,97696.09
2022-09-17T04:21:46.223Z,97698.31
2022-09-17T04:26:49.306Z,97684.88
2022-09-17T04:31:52.091Z,97685.34
2022-09-17T04:36:54.634Z,97696.28
2022-09-17T04:41:57.181Z,97705.09
2022-09-17T04:46:59.705Z,97713.63
2022-09-17T04:52:02.445Z,97720.94
2022-09-17T04:57:05.365Z,97723.09
2022-09-17T05:02:07.805Z,97723.44
2022-09-17T05:07:13.370Z,97733.25
2022-09-17T05:12:16.460Z,97733.63
2022-09-17T05:17:19.400Z,97733.13
2022-09-17T05:22:21.875Z,97728.59
2022-09-17T05:27:24.252Z,97726.72
2022-09-17T05:32:26.684Z,97733.41
2022-09-17T05:37:29.401Z,97737.50
2022-09-17T05:42:31.869Z,97742.84
2022-09-17T05:47:35.487Z,97752.84
2022-09-17T05:52:37.894Z,97736.13
2022-09-17T05:57:40.292Z,97752.78
2022-09-17T06:02:43.428Z,97758.94
2022-09-17T06:07:45.888Z,97757.28
2022-09-17T06:12:48.553Z,97766.44
2022-09-17T06:17:51.207Z,97777.03
2022-09-17T06:22:57.900Z,97778.25
2022-09-17T06:28:03.261Z,97776.78
2022-09-17T06:33:05.654Z,97776.44
2022-09-17T06:38:08.160Z,97780.56
2022-09-17T06:43:10.608Z,97787.16
2022-09-17T06:48:13.036Z,97784.50
2022-09-17T06:53:15.802Z,97801.09
2022-09-17T06:58:18.590Z,97797.94
2022-09-17T07:03:23.410Z,97800.59
2022-09-17T07:08:26.944Z,97799.91
2022-09-17T07:13:29.387Z,97806.97
2022-09-17T07:18:32.550Z,97817.97
2022-09-17T07:23:37.256Z,97816.94
2022-09-17T07:28:40.590Z,97823.44
2022-09-17T07:33:43.206Z,97829.47
2022-09-17T07:38:46.042Z,97832.13
2022-09-17T07:43:49.106Z,97836.59
2022-09-17T07:48:51.884Z,97836.88
2022-09-17T07:53:56.255Z,97845.75
2022-09-17T07:58:58.918Z,97845.47
2022-09-17T08:04:01.535Z,97856.09
2022-09-17T08:09:04.705Z,97855.78
2022-09-17T08:14:10.068Z,97859.00
2022-09-17T08:19:12.566Z,97864.00
2022-09-17T08:24:14.973Z,97860.84
2022-09-17T08:29:17.577Z,97862.13
2022-09-17T08:34:20.245Z,97859.44
2022-09-17T08:39:22.667Z,97868.03
2022-09-17T08:44:32.644Z,97865.28
2022-09-17T08:50:06.076Z,97863.66
2022-09-17T08:55:26.720Z,97866.22
2022-09-17T09:00:46.403Z,97869.03
2022-09-17T09:05:53.004Z,97875.66
2022-09-17T09:11:02.405Z,97871.13
2022-09-17T09:16:11.727Z,97874.78
2022-09-17T09:21:37.561Z,97864.66
2022-09-17T09:26:48.439Z,97862.41
2022-09-17T09:32:19.693Z,97861.16
2022-09-17T09:37:26.876Z,97859.00
2022-09-17T09:42:39.525Z,97863.59
2022-09-17T09:48:05.811Z,97868.91
2022-09-17T09:53:15.077Z,97868.22
2022-09-17T09:58:26.408Z,97871.09
2022-09-17T10:03:32.378Z,97875.44
2022-09-17T10:08:41.255Z,97865.13
2022-09-17T10:13:43.691Z,97869.91
2022-09-17T10:18:48.422Z,97868.16
2022-09-17T10:23:51.599Z,97857.03
2022-09-17T10:29:02.088Z,97855.72
2022-09-17T10:34:04.705Z,97859.13
2022-09-17T10:39:29.352Z,97857.88
2022-09-17T10:44:36.798Z,97845.97
2022-09-17T10:49:43.921Z,97855.47
2022-09-17T10:55:30.888Z,97848.25
2022-09-17T11:00:53.609Z,97852.84
2022-09-17T11:06:14.335Z,97841.72
2022-09-17T11:11:48.651Z,97836.34
2022-09-17T11:17:22.927Z,97830.53
2022-09-17T11:22:52.544Z,97827.78
2022-09-17T11:28:07.752Z,97822.34
2022-09-17T11:33:40.381Z,97821.13
2022-09-17T11:38:49.081Z,97822.09
2022-09-17T11:44:05.875Z,97808.25
2022-09-17T11:49:29.748Z,97812.59
2022-09-17T11:54:53.931Z,97808.06
2022-09-17T12:00:06.032Z,97811.38
2022-09-17T12:05:18.651Z,97800.97
2022-09-17T12:10:41.795Z,97798.31
2022-09-17T12:15:53.179Z,97784.91
2022-09-17T12:20:59.421Z,97779.09
2022-09-17T12:26:06.346Z,97805.06
2022-09-17T12:31:51.769Z,97791.91
2022-09-17T12:37:08.471Z,97793.53
2022-09-17T12:42:24.964Z,97800.31
2022-09-17T12:47:59.882Z,97822.97
2022-09-17T12:53:19.571Z,97807.94
2022-09-17T12:58:53.750Z,97809.00
2022-09-17T13:04:59.581Z,97829.84
2022-09-17T13:10:08.570Z,97834.28
2022-09-17T13:15:22.954Z,97836.19
2022-09-17T13:20:32.569Z,97846.06
2022-09-17T13:25:49.237Z,97838.34
2022-09-17T13:31:01.734Z,97846.13
2022-09-17T13:36:04.808Z,97828.53
2022-09-17T13:41:21.836Z,97826.78
2022-09-17T13:46:26.742Z,97826.81
2022-09-17T13:51:32.148Z,97829.94
2022-09-17T13:57:10.603Z,97833.13
2022-09-17T14:02:19.231Z,97822.75
2022-09-17T14:07:22.143Z,97821.03
2022-09-17T14:12:49.524Z,97811.69
2022-09-17T14:17:55.051Z,97811.72
2022-09-17T14:23:10.465Z,97817.97
2022-09-17T14:28:23.999Z,97820.47
2022-09-17T14:33:32.061Z,97812.75
2022-09-17T14:39:04.578Z,97813.69
2022-09-17T14:44:18.373Z,97802.69
2022-09-17T14:49:30.693Z,97806.44
2022-09-17T14:54:36.594Z,97806.31
2022-09-17T14:59:46.821Z,97804.03
2022-09-17T15:04:49.533Z,97819.84
2022-09-17T15:09:55.353Z,97816.88
2022-09-17T15:14:58.461Z,97809.47
2022-09-17T15:20:05.857Z,97806.81
2022-09-17T15:25:09.587Z,97808.09
2022-09-17T15:30:22.178Z,97810.69
2022-09-17T15:35:24.662Z,97815.19
2022-09-17T15:40:42.292Z,97802.34
2022-09-17T15:45:44.887Z,97804.03
2022-09-17T15:50:55.939Z,97810.53
2022-09-17T15:56:13.265Z,97803.38
2022-09-17T16:01:15.830Z,97797.25
2022-09-17T16:06:21.038Z,97797.91
2022-09-17T16:11:26.787Z,97803.97
2022-09-17T16:16:37.271Z,97808.25
2022-09-17T16:21:39.353Z,97811.28
2022-09-17T16:26:41.956Z,97810.66
2022-09-17T16:31:44.968Z,97818.22
2022-09-17T16:36:47.118Z,97823.41
2022-09-17T16:41:49.868Z,97815.84
2022-09-17T16:46:52.394Z,97812.50
2022-09-17T16:51:54.512Z,97812.47
2022-09-17T16:56:56.535Z,97808.53
2022-09-17T17:01:58.949Z,97806.66
2022-09-17T17:07:01.398Z,97825.84
2022-09-17T17:12:04.017Z,97846.13
2022-09-17T17:17:06.229Z,97852.25
2022-09-17T17:22:08.888Z,97840.28
2022-09-17T17:27:10.980Z,97836.72
2022-09-17T17:32:13.605Z,97833.38
2022-09-17T17:37:16.538Z,97848.38
2022-09-17T17:42:19.265Z,97854.50
2022-09-17T17:47:24.095Z,97868.63
2022-09-17T17:52:26.564Z,97876.25
2022-09-17T17:57:29.017Z,97873.72
2022-09-17T18:02:31.187Z,97881.31
2022-09-17T18:07:34.089Z,97874.34
2022-09-17T18:12:37.176Z,97876.88
2022-09-17T18:17:39.688Z,97888.88
2022-09-17T18:22:42.121Z,97880.50
2022-09-17T18:27:44.551Z,97897.19
2022-09-17T18:32:49.300Z,97910.53
2022-09-17T18:37:51.743Z,97909.06
2022-09-17T18:42:54.282Z,97908.22
2022-09-17T18:47:56.717Z,97906.53
2022-09-17T18:52:59.216Z,97909.41
2022-09-17T18:58:01.627Z,97905.72
2022-09-17T19:03:04.056Z,97956.81
2022-09-17T19:08:06.577Z,97958.59
2022-09-17T19:13:08.952Z,98017.72
2022-09-17T19:18:11.962Z,97992.06
2022-09-17T19:23:14.459Z,97983.78
2022-09-17T19:28:16.895Z,98012.53
2022-09-17T19:33:19.659Z,97979.94
2022-09-17T19:38:25.159Z,97969.25
2022-09-17T19:43:28.132Z,97974.69
2022-09-17T19:48:31.135Z,97990.03
2022-09-17T19:53:34.113Z,98013.91
2022-09-17T19:58:36.580Z,98022.91
2022-09-17T20:03:40.733Z,98018.47
2022-09-17T20:08:51.676Z,98018.88
2022-09-17T20:14:06.478Z,98014.66
2022-09-17T20:19:11.697Z,98019.09
2022-09-17T20:24:14.215Z,98016.16
2022-09-17T20:29:16.647Z,98011.09
2022-09-17T20:34:19.296Z,98018.34
2022-09-17T20:39:23.131Z,98009.56
2022-09-17T20:44:25.839Z,98010.31
2022-09-17T20:49:28.742Z,98010.03
2022-09-17T20:54:31.219Z,98020.56
2022-09-17T20:59:52.294Z,98022.50
2022-09-17T21:04:55.226Z,98037.25
2022-09-17T21:09:57.704Z,98027.97
2022-09-17T21:15:00.216Z,98031.06
2022-09-17T21:20:03.155Z,98036.41
2022-09-17T21:25:06.236Z,98056.50
2022-09-17T21:30:09.820Z,98051.69
2022-09-17T21:35:12.486Z,98057.69
2022-09-17T21:40:15.335Z,98059.75
2022-09-17T21:45:17.880Z,98054.59
2022-09-17T21:50:21.732Z,98056.34
2022-09-17T21:55:24.209Z,98060.75
2022-09-17T22:00:26.915Z,98058.06
2022-09-17T22:05:29.472Z,98059.56
2022-09-17T22:10:31.971Z,98060.41
2022-09-17T22:15:34.434Z,98053.13
2022-09-17T22:20:36.864Z,98059.34
2022-09-17T22:25:39.244Z,98054.09
2022-09-17T22:30:42.476Z,98060.50
2022-09-17T22:35:44.919Z,98057.22
2022-09-17T22:40:47.393Z,98049.31
2022-09-17T22:45:50.248Z,98051.38
2022-09-17T22:50:53.326Z,98053.91
2022-09-17T22:55:56.971Z,98033.47
2022-09-17T23:01:02.887Z,98043.09
2022-09-17T23:06:08.164Z,98040.59
2022-09-17T23:11:20.921Z,98045.94
2022-09-17T23:16:23.877Z,98047.53
2022-09-17T23:21:26.603Z,98045.91
2022-09-17T23:26:29.104Z,98043.34
2022-09-17T23:31:31.866Z,98047.63
2022-09-17T23:36:36.917Z,98046.41
2022-09-17T23:41:44.876Z,98051.00
2022-09-17T23:46:47.450Z,98039.78
2022-09-17T23:51:50.388Z,98046.13
2022-09-17T23:56:52.805Z,98048.41
